Nearby METAR (Airport) Reports

 

KPRN - Greenville, Alabama, USA
Distance from station: WNW 17mi, 28km
Updated: Fri, 20-Oct-2017 2:56am CDT
Clear
Clear
 Wind from calm
Wind: Calm
Temperature: 57°F , 14°C
Dew Point: 52°F , 11°C
Humidity: 82%
Barometer: 30.20 inHg , 1022.7 hPa
Clouds: Clear
Visibility: 10 miles , 16 km
2017/10/20 07:56 KPRN 200756Z AUTO 00000KT 10SM CLR 14/11 A3020 RMK AO2 SLP223 T01440106
KTOI - Troy, Alabama, USA
Distance from station: ENE 21mi, 34km
Updated: Fri, 20-Oct-2017 3:53am CDT
Mist, Clear
Mist, Clear
 Wind from calm
Wind: Calm
Temperature: 52°F , 11°C
Dew Point: 52°F , 11°C
Humidity: 100%
Barometer: 30.22 inHg , 1023.4 hPa
Summary: Mist
Clouds: Clear
Visibility: 1 1/2 miles , 2 km
2017/10/20 08:53 KTOI 200853Z AUTO 00000KT 1 1/2SM BR CLR 11/11 A3022 RMK AO2 SLP229 T01060106 58003 $
K79J - Andalusia/Opp Ar, Alabama, USA
Distance from station: S 29mi, 47km
Updated: Fri, 20-Oct-2017 3:56am CDT
Clear
Clear
 Wind from calm
Wind: Calm
Temperature: 61°F , 16°C
Dew Point: 55°F , 13°C
Humidity: 83%
Barometer: 30.19 inHg , 1022.4 hPa
Clouds: Clear
Visibility: 10 miles , 16 km
2017/10/20 08:56 K79J 200856Z AUTO 00000KT 10SM CLR 16/13 A3019 RMK AO2 SLP220 T01560128 58001
 
KMGM - Montgomery, Alabama, USA
Distance from station: N 39mi, 63km
Updated: Fri, 20-Oct-2017 3:53am CDT
Clear
Clear
 Wind from calm
Wind: Calm
Temperature: 54°F , 12°C
Dew Point: 48°F , 9°C
Humidity: 82%
Barometer: 30.22 inHg , 1023.4 hPa
Clouds: Clear
Visibility: 10 miles , 16 km
2017/10/20 08:53 KMGM 200853Z AUTO 00000KT 10SM CLR 12/09 A3022 RMK AO2 SLP233 T01220094 55000
KMXF - Maxwell Afb/Mgm, Alabama, USA
Distance from station: N 44mi, 70km
Updated: Fri, 20-Oct-2017 3:56am CDT
Clear
Clear
 Wind from calm
Wind: Calm
Temperature: 55°F , 13°C
Dew Point: 54°F , 12°C
Humidity: 94%
Barometer: 30.22 inHg , 1023.4 hPa
Clouds: Clear
Visibility: 10 miles , 16 km
2017/10/20 08:56 KMXF 200856Z AUTO 00000KT 10SM CLR 13/12 A3022 RMK AO2 SLP235 T01290124 55000
KLOR - Lowe Ahp/Ft. Ruc, Alabama, USA
Distance from station: SE 44mi, 71km
Updated: Fri, 20-Oct-2017 3:58am CDT
Clear
Clear
 Wind from calm
Wind: Calm
Temperature: 57°F , 14°C
Dew Point: 55°F , 13°C
Humidity: 94%
Barometer: 30.20 inHg , 1022.7 hPa
Clouds: Clear
Visibility: 10 miles , 16 km
2017/10/20 08:58 KLOR 200858Z AUTO 00000KT 10SM CLR 14/13 A3020 RMK AO2 SLP209 T01420131 58002
 
KGZH - Evergreen, Alabama, USA
Distance from station: WSW 46mi, 75km
Updated: Fri, 20-Oct-2017 3:53am CDT
Clear
Clear
 Wind from calm
Wind: Calm
Temperature: 54°F , 12°C
Dew Point: 52°F , 11°C
Humidity: 94%
Barometer: 30.20 inHg , 1022.7 hPa
Clouds: Clear
Visibility: 10 miles , 16 km
2017/10/20 08:53 KGZH 200853Z AUTO 00000KT 10SM CLR 12/11 A3020 RMK AO2 SLP225 T01170111 58001
K0J4 - Florala Muni, Alabama, USA
Distance from station: S 47mi, 76km
Updated: Fri, 20-Oct-2017 2:58am CDT
Clear
Clear
 Wind from NE
Wind: NE 5 mph , 7 km/h
Temperature: 61°F , 16°C
Dew Point: 55°F , 13°C
Humidity: 83%
Barometer: 30.21 inHg , 1023 hPa
Clouds: Clear
Visibility: 10 miles , 16 km
2017/10/20 07:58 K0J4 200758Z AUTO 05004KT 10SM CLR 16/13 A3021 RMK AO2 SLP227 T01560128
KOZR - Ozark/Cairns Aaf, Alabama, USA
Distance from station: SE 49mi, 78km
Updated: Fri, 20-Oct-2017 3:56am CDT
Clear
Clear
 Wind from NE
Wind: NE 7 mph , 11 km/h
Temperature: 57°F , 14°C
Dew Point: 54°F , 12°C
Humidity: 88%
Barometer: 30.19 inHg , 1022.4 hPa
Clouds: Clear
Visibility: 10 miles , 16 km
2017/10/20 08:56 KOZR 200856Z AUTO 04006KT 10SM CLR 14/12 A3019 RMK AO2 SLP224 T01430122 58001
 
KHEY - Ft Rucker/Hanche, Alabama, USA
Distance from station: ESE 49mi, 79km
Updated: Fri, 20-Oct-2017 3:58am CDT
Clear
Clear
 Wind from NE
Wind: NE 5 mph , 7 km/h
Temperature: 61°F , 16°C
Dew Point: 54°F , 12°C
Humidity: 77%
Barometer: 30.19 inHg , 1022.4 hPa
Clouds: Clear
Visibility: 10 miles , 16 km
2017/10/20 08:58 KHEY 200858Z AUTO 04004KT 10SM CLR 16/12 A3019 RMK AO2 SLP224 T01580122 58002
KDHN - Dothan, Alabama, USA
Distance from station: ESE 61mi, 97km
Updated: Fri, 20-Oct-2017 3:53am CDT
Clear
Clear
 Wind from NE
Wind: NE 7 mph , 11 km/h
Temperature: 57°F , 14°C
Dew Point: 54°F , 12°C
Humidity: 88%
Barometer: 30.23 inHg , 1023.7 hPa
Clouds: Clear
Visibility: 10 miles , 16 km
2017/10/20 08:53 KDHN 200853Z AUTO 05006KT 10SM CLR 14/12 A3023 RMK AO2 SLP233 T01440122 58002 $
KCEW - Crestview, Florida, USA
Distance from station: S 66mi, 107km
Updated: Fri, 20-Oct-2017 3:53am CDT
Clear
Clear
 Wind from calm
Wind: Calm
Temperature: 57°F , 14°C
Dew Point: 55°F , 13°C
Humidity: 94%
Barometer: 30.19 inHg , 1022.4 hPa
Clouds: Clear
Visibility: 10 miles , 16 km
2017/10/20 08:53 KCEW 200853Z AUTO 00000KT 10SM CLR 14/13 A3019 RMK AO2 SLP221 T01440128 58002
 
KEUF - Eufaula, Alabama, USA
Distance from station: ENE 73mi, 118km
Updated: Fri, 20-Oct-2017 3:58am CDT
Clear
Clear
 Wind from calm
Wind: Calm
Temperature: 52°F , 11°C
Dew Point: 50°F , 10°C
Humidity: 94%
Barometer: 30.21 inHg , 1023 hPa
Clouds: Clear
Visibility: 9 miles , 14 km
2017/10/20 08:58 KEUF 200858Z AUTO 00000KT 9SM CLR 11/10 A3021 RMK AO2 SLP228 T01060100 56002
KJKA - Gulf Shores, Alabama, USA
Distance from station: SSW 132mi, 212km
Updated: Fri, 20-Oct-2017 3:55am CDT
Clear
Clear
 Wind from NW
Wind: NW 5 mph , 7 km/h
Temperature: 63°F , 17°C
Dew Point: 61°F , 16°C
Humidity: 94%
Barometer: 30.14 inHg , 1020.7 hPa
Clouds: Clear
Visibility: 10 miles , 16 km
2017/10/20 08:55 KJKA 200855Z AUTO 32004KT 10SM CLR 17/16 A3014 RMK AO2 T01660156
KLSF - Ft Benning/Colum, Georgia, USA
Distance from station: SNE 89mi, 143km
Updated: Fri, 20-Oct-2017 3:56am CDT
Mist, Clear
Mist, Clear
 Wind from calm
Wind: Calm
Temperature: 46°F , 8°C
Dew Point: 46°F , 8°C
Humidity: 100%
Barometer: 30.22 inHg , 1023.4 hPa
Summary: Mist
Clouds: Clear
Visibility: 5/8 mile , 8 km
2017/10/20 08:56 KLSF 200856Z AUTO 00000KT 5/8SM R33/1400V2800FT BR CLR 08/08 A3022 RMK AO2 SLP238 T00780078 55001
 
KMOB - Mobile/Bates, Alabama, USA
Distance from station: SW 125mi, 202km
Updated: Fri, 20-Oct-2017 3:56am CDT
Clear
Clear
 Wind from NE
Wind: NE 7 mph , 11 km/h
Temperature: 63°F , 17°C
Dew Point: 57°F , 14°C
Humidity: 83%
Barometer: 30.16 inHg , 1021.3 hPa
Clouds: Clear
Visibility: 10 miles , 16 km
2017/10/20 08:56 KMOB 200856Z AUTO 04006KT 10SM CLR 17/14 A3016 RMK AO2 SLP212 T01670144 58009
KNMM - Meridian Nas, Mississippi, USA
Distance from station: WNW 151mi, 243km
Updated: Fri, 20-Oct-2017 3:35am CDT
Mist, Few clouds
Mist, Few clouds
 Wind from N
Wind: N 3 mph , 6 km/h
Temperature: 52°F , 11°C
Dew Point: 48°F , 9°C
Humidity: 88%
Barometer: 30.21 inHg , 1023 hPa
Summary: Mist
Clouds: Few Clouds
Visibility: 4 miles , 6 km
Cloud details: Few Clouds 200 ft
2017/10/20 08:35 KNMM 200835Z AUTO 35003KT 4SM BR FEW002 11/09 A3021 RMK AO2 VIS 1/2 SOUTH T01060094 $
KQHY - Hurlbert (Ft Walton Bch), Florida, USA
Distance from station: S 94mi, 151km
Updated: Fri, 20-Oct-2017 12:56am CDT
NOT Current
Clear
Clear
 Wind from NE
Wind: NE 5 mph , 7 km/h
Temperature: 66°F , 19°C
Dew Point: 59°F , 15°C
Humidity: 78%
Barometer: 30.18 inHg , 1022 hPa
Clouds: Clear
Visibility: 10 miles , 16 km
2017/10/20 05:56 KQHY 200556Z AUTO 04004KT 10SM CLR 19/15 A3018 RMK AO2 SLP226 T01930152 10228 20193 58004
 
KTCL - Tuscaloosa, Alabama, USA
Distance from station: NNW 129mi, 207km
Updated: Fri, 20-Oct-2017 3:53am CDT
Clear
Clear
 Wind from calm
Wind: Calm
Temperature: 50°F , 10°C
Dew Point: 50°F , 10°C
Humidity: 100%
Barometer: 30.24 inHg , 1024 hPa
Clouds: Clear
Visibility: 10 miles , 16 km
2017/10/20 08:53 KTCL 200853Z AUTO 00000KT 10SM CLR 10/10 A3024 RMK AO2 SLP237 T01000100 51001
KECP - Panama City, Florida, USA
Distance from station: SSE 122mi, 196km
Updated: Fri, 20-Oct-2017 3:53am CDT
Clear
Clear
 Wind from N
Wind: N 3 mph , 6 km/h
Temperature: 63°F , 17°C
Dew Point: 55°F , 13°C
Humidity: 77%
Barometer: 30.16 inHg , 1021.3 hPa
Clouds: Clear
Visibility: 10 miles , 16 km
2017/10/20 08:53 KECP 200853Z AUTO 01003KT 10SM CLR 17/13 A3016 RMK AO2 SLP224 T01670133 56002
KCBM - Columbus Afb, Mississippi, USA
Distance from station: NW 175mi, 282km
Updated: Fri, 20-Oct-2017 3:56am CDT
Clear
Clear
 Wind from calm
Wind: Calm
Temperature: 45°F , 7°C
Dew Point: 45°F , 7°C
Humidity: 100%
Barometer: 30.22 inHg , 1023.4 hPa
Clouds: Clear
Visibility: 10 miles , 16 km
2017/10/20 08:56 KCBM 200856Z AUTO 00000KT 10SM CLR 07/07 A3022 RMK AO2 SLP236 T00720072 50003 TSNO $
 
KBHM - Birmingham, Alabama, USA
Distance from station: N 132mi, 212km
Updated: Fri, 20-Oct-2017 3:53am CDT
Clear
Clear
 Wind from calm
Wind: Calm
Temperature: 48°F , 9°C
Dew Point: 46°F , 8°C
Humidity: 94%
Barometer: 30.27 inHg , 1025.1 hPa
Clouds: Clear
Visibility: 10 miles , 16 km
2017/10/20 08:53 KBHM 200853Z 00000KT 10SM CLR 09/08 A3027 RMK AO2 SLP246 T00940078 53004
KAAF - Apalachicola, Florida, USA
Distance from station: SSE 156mi, 250km
Updated: Fri, 20-Oct-2017 3:53am CDT
Clear
Clear
 Wind from NE
Wind: NE 7 mph , 11 km/h
Temperature: 64°F , 18°C
Dew Point: 63°F , 17°C
Humidity: 94%
Barometer: 30.15 inHg , 1021 hPa
Clouds: Clear
Visibility: 10 miles , 16 km
2017/10/20 08:53 KAAF 200853Z AUTO 05006KT 10SM CLR 18/17 A3015 RMK AO2 SLP208 T01830172 58002
KATL - Atlanta, Georgia, USA
Distance from station: NE 177mi, 287km
Updated: Fri, 20-Oct-2017 3:52am CDT
Few Clouds
Few Clouds
 Wind from N
Wind: N 3 mph , 6 km/h
Temperature: 50°F , 10°C
Dew Point: 46°F , 8°C
Humidity: 88%
Barometer: 30.25 inHg , 1024.4 hPa
Clouds: Few Clouds
Visibility: 10 miles , 16 km
Cloud details: Few Clouds 20000 ft
2017/10/20 08:52 KATL 200852Z 35003KT 10SM FEW200 10/08 A3025 RMK AO2 SLP239 T01000078 58001
 
KGPT - Gulfport, Mississippi, USA
Distance from station: SW 192mi, 309km
Updated: Fri, 20-Oct-2017 3:53am CDT
Clear
Clear
 Wind from NNE
Wind: NNE 5 mph , 7 km/h
Temperature: 64°F , 18°C
Dew Point: 61°F , 16°C
Humidity: 88%
Barometer: 30.13 inHg , 1020.3 hPa
Clouds: Clear
Visibility: 10 miles , 16 km
2017/10/20 08:53 KGPT 200853Z AUTO 03004KT 10SM CLR 18/16 A3013 RMK AO2 SLP203 T01830156 58010
KNEW - New Orleans/Lake, Louisiana, USA
Distance from station: SW 255mi, 410km
Updated: Fri, 20-Oct-2017 3:53am CDT
Clear
Clear
 Wind from ENE
Wind: ENE 15 mph , 24 km/h
Temperature: 72°F , 22°C
Dew Point: 66°F , 19°C
Humidity: 83%
Barometer: 30.12 inHg , 1020 hPa
Clouds: Clear
Visibility: 10 miles , 16 km
2017/10/20 08:53 KNEW 200853Z 07013KT 10SM CLR 22/19 A3012 RMK AO2 SLP192 T02170189 56015
KP92 - Salt Point, Louisiana, USA
Distance from station: SW 347mi, 559km
Updated: Fri, 20-Oct-2017 3:53am CDT

 Wind from varies
Wind: varies 3 mph , 6 km/h
Temperature: 70°F , 21°C
Dew Point: 66°F , 19°C
Humidity: 88%
Barometer: 30.09 inHg , 1019 hPa
2017/10/20 08:53 KP92 200853Z AUTO VRB03KT 21/19 A3009 RMK AO1 SLP188 T02110189 55007 $